Latest Weather Observations for Lockhart River

IDQ60801

Issued at 1:32 pm EST Saturday 29 April 2017 (issued every 30 minutes, with the page automatically refreshed every 10 minutes)

About weather observations | Map of weather stations | Latest weather observations for QLD | Other Formats
Station Details ID: 028008 Name: LOCKHART RIVER AIRPORT Lat: -12.79 Lon: 143.30 Height: 18.5 m
Data from the previous 72 hours. | See also: Recent months at Lockhart River
Date/Time
EST
Temp
°C
App
Temp
°C
Dew
Point
°C
Rel
Hum
%
Delta-T
°C
Wind Press
QNH
hPa
Press
MSL
hPa
Rain since
9am
mm
Dir  Spd
km/h
Gust
km/h
Spd
kts
Gust
kts
29/01:30pm 28.5 29.8 23.4 74 3.5 ESE 22 35 12 19 1012.2 1012.1 0.0
29/01:00pm 28.8 30.9 24.1 76 3.3 E 20 33 11 18 1012.5 1012.4 0.0
29/12:30pm 28.5 30.2 23.4 74 3.5 ESE 20 28 11 15 1012.8 1012.7 0.0
29/12:00pm 28.2 29.7 23.1 74 3.5 ESE 20 32 11 17 1013.2 1013.1 0.0
29/11:30am 28.2 29.9 23.1 74 3.5 ESE 19 28 10 15 1013.5 1013.4 0.0
29/11:00am 27.9 28.5 22.8 74 3.5 ESE 24 33 13 18 1014.0 1013.9 0.0
29/10:30am 28.0 29.4 22.9 74 3.5 ESE 20 33 11 18 1014.0 1013.9 0.0
29/10:00am 28.0 29.7 23.4 76 3.2 ESE 20 30 11 16 1014.0 1013.9 0.0
29/09:30am 27.7 29.4 23.1 76 3.1 ESE 19 26 10 14 1014.1 1014.0 0.0
29/09:00am 27.0 30.2 24.3 85 1.9 ESE 15 24 8 13 1014.0 1013.9 0.0
29/08:30am 24.1 30.0 24.1 100 0.0 CALM 0 0 0 0 1013.7 1013.6 0.0
29/08:00am 23.2 28.6 23.2 100 0.0 CALM 0 0 0 0 1013.7 1013.6 0.0
29/07:30am 21.9 26.6 21.9 100 0.0 CALM 0 0 0 0 1013.5 1013.4 0.0
29/07:00am 21.1 25.4 21.1 100 0.0 CALM 0 0 0 0 1013.3 1013.2 0.0
29/06:30am 21.0 25.2 21.0 100 0.0 CALM 0 0 0 0 1013.0 1012.9 0.0
29/06:00am 21.0 25.2 21.0 100 0.0 CALM 0 0 0 0 1012.9 1012.8 0.0
29/05:30am 21.0 25.2 21.0 100 0.0 CALM 0 0 0 0 1012.5 1012.4 0.0
29/05:00am 21.1 25.4 21.1 100 0.0 CALM 0 0 0 0 1012.3 1012.2 0.0
29/04:30am 21.2 25.5 21.2 100 0.0 CALM 0 0 0 0 1012.2 1012.1 0.0
29/04:00am 21.3 25.7 21.3 100 0.0 CALM 0 0 0 0 1012.4 1012.3 0.0
29/03:30am 21.5 26.0 21.5 100 0.0 CALM 0 0 0 0 1012.3 1012.2 0.0
29/03:00am 21.7 26.3 21.7 100 0.0 CALM 0 0 0 0 1012.5 1012.4 0.0
29/02:30am 21.7 26.3 21.7 100 0.0 CALM 0 0 0 0 1012.7 1012.6 0.0
29/02:00am 22.0 26.7 22.0 100 0.0 CALM 0 0 0 0 1012.9 1012.8 0.0
29/01:30am 22.0 26.7 22.0 100 0.0 CALM 0 0 0 0 1013.2 1013.1 0.0
29/01:00am 21.8 26.4 21.8 100 0.0 CALM 0 0 0 0 1013.5 1013.4 0.0
29/12:30am 21.8 26.4 21.8 100 0.0 CALM 0 0 0 0 1013.6 1013.5 0.0
29/12:00am 22.0 26.7 22.0 100 0.0 CALM 0 0 0 0 1014.0 1013.9 0.0
 
Date/Time
EST
Temp
°C
App
Temp
°C
Dew
Point
°C
Rel
Hum
%
Delta-T
°C
Wind Press
QNH
hPa
Press
MSL
hPa
Rain since
9am
mm
Dir  Spd
km/h
Gust
km/h
Spd
kts
Gust
kts
28/11:30pm 22.0 26.7 22.0 100 0.0 CALM 0 0 0 0 1014.2 1014.1 0.0
28/11:00pm 22.2 27.0 22.2 100 0.0 CALM 0 0 0 0 1014.2 1014.1 0.0
28/10:30pm 22.2 27.0 22.2 100 0.0 CALM 0 0 0 0 1014.3 1014.2 0.0
28/10:00pm 22.3 27.2 22.3 100 0.0 CALM 0 0 0 0 1014.2 1014.1 0.0
28/09:30pm 22.6 27.7 22.6 100 0.0 CALM 0 0 0 0 1014.3 1014.2 0.0
28/09:00pm 22.7 27.8 22.7 100 0.0 CALM 0 0 0 0 1014.2 1014.1 0.0
28/08:30pm 22.9 28.0 22.6 98 0.2 CALM 0 0 0 0 1013.9 1013.8 0.0
28/08:00pm 23.4 28.5 22.6 95 0.5 CALM 0 0 0 0 1013.4 1013.3 0.0
28/07:30pm 24.0 29.1 22.6 92 0.9 CALM 0 0 0 0 1012.9 1012.8 0.0
28/07:00pm 25.2 30.0 22.1 83 2.1 CALM 0 0 0 0 1012.4 1012.3 0.0
28/06:30pm 25.8 28.9 22.1 80 2.5 SE 9 15 5 8 1012.1 1012.0 0.0
28/06:00pm 26.6 28.0 21.8 75 3.2 SE 17 24 9 13 1011.7 1011.6 0.0
28/05:30pm 27.2 27.9 21.5 71 3.8 SE 20 30 11 16 1011.6 1011.5 0.0
28/05:00pm 27.5 28.0 21.1 68 4.2 ESE 20 33 11 18 1011.3 1011.2 0.0
28/04:30pm 27.9 28.0 21.2 67 4.5 ESE 22 33 12 18 1011.0 1010.9 0.0
28/04:00pm 28.3 29.0 21.6 67 4.5 ESE 20 30 11 16 1010.9 1010.8 0.0
28/03:30pm 28.5 29.2 21.5 66 4.7 E 20 32 11 17 1010.7 1010.6 0.0
28/03:00pm 28.5 29.4 22.7 71 3.9 ESE 22 33 12 18 1010.7 1010.6 0.0
28/02:30pm 28.6 30.2 22.8 71 3.9 ESE 19 33 10 18 1011.1 1011.0 0.0
28/02:00pm 29.0 30.7 23.4 72 3.8 ESE 20 30 11 16 1011.4 1011.3 0.0
28/01:30pm 28.9 30.3 22.6 69 4.3 ESE 19 26 10 14 1011.8 1011.7 0.0
28/01:00pm 29.2 31.2 23.6 72 3.9 ESE 19 28 10 15 1012.1 1012.0 0.0
28/12:30pm 29.0 30.7 23.4 72 3.8 ESE 20 32 11 17 1012.6 1012.5 0.0
28/12:00pm 28.4 30.1 23.1 73 3.6 E 19 28 10 15 1012.9 1012.8 0.0
28/11:30am 28.4 30.1 23.1 73 3.6 ESE 19 30 10 16 1013.4 1013.3 0.0
28/11:00am 28.4 29.7 23.3 74 3.5 ESE 22 32 12 17 1013.8 1013.7 0.0
28/10:30am 28.5 30.6 24.1 77 3.0 SE 20 28 11 15 1014.0 1013.9 0.0
28/10:00am 27.6 31.2 24.4 83 2.2 SE 13 20 7 11 1014.2 1014.1 0.0
28/09:30am 26.4 31.9 24.6 90 1.2 SE 4 13 2 7 1014.2 1014.1 0.0
28/09:00am 25.0 31.0 24.3 96 0.5 CALM 0 11 0 6 1013.9 1013.8 0.0
28/08:30am 23.8 29.5 23.8 100 0.0 CALM 0 0 0 0 1013.7 1013.6 0.0
28/08:00am 22.6 27.7 22.6 100 0.0 CALM 0 0 0 0 1013.4 1013.3 0.0
28/07:30am 21.6 26.1 21.6 100 0.0 CALM 0 0 0 0 1013.3 1013.2 0.0
28/07:00am 20.8 24.9 20.8 100 0.0 CALM 0 0 0 0 1012.9 1012.8 0.0
28/06:30am 20.6 24.6 20.6 100 0.0 CALM 0 0 0 0 1012.3 1012.2 0.0
28/06:00am 20.6 24.6 20.6 100 0.0 CALM 0 0 0 0 1011.9 1011.8 0.0
28/05:30am 20.7 24.8 20.7 100 0.0 CALM 0 0 0 0 1011.6 1011.5 0.0
28/05:00am 20.8 24.9 20.8 100 0.0 CALM 0 0 0 0 1011.4 1011.3 0.0
28/04:30am 21.0 25.2 21.0 100 0.0 CALM 0 0 0 0 1011.2 1011.1 0.0
28/04:00am 20.9 25.1 20.9 100 0.0 CALM 0 0 0 0 1011.1 1011.0 0.0
28/03:30am 21.1 25.4 21.1 100 0.0 CALM 0 0 0 0 1011.3 1011.2 0.0
28/03:00am 21.2 25.5 21.2 100 0.0 CALM 0 0 0 0 1011.4 1011.3 0.0
28/02:30am 21.4 25.8 21.4 100 0.0 CALM 0 0 0 0 1011.5 1011.4 0.0
28/02:00am 21.5 26.0 21.5 100 0.0 CALM 0 0 0 0 1011.8 1011.7 0.0
28/01:30am 21.6 26.1 21.6 100 0.0 CALM 0 0 0 0 1012.1 1012.0 0.0
28/01:00am 21.8 26.4 21.8 100 0.0 CALM 0 0 0 0 1012.3 1012.2 0.0
28/12:30am 21.9 26.6 21.9 100 0.0 CALM 0 0 0 0 1012.5 1012.4 0.0
28/12:00am 22.1 26.9 22.1 100 0.0 CALM 0 0 0 0 1012.7 1012.6 0.0
 
Date/Time
EST
Temp
°C
App
Temp
°C
Dew
Point
°C
Rel
Hum
%
Delta-T
°C
Wind Press
QNH
hPa
Press
MSL
hPa
Rain since
9am
mm
Dir  Spd
km/h
Gust
km/h
Spd
kts
Gust
kts
27/11:30pm 22.4 27.3 22.4 100 0.0 CALM 0 0 0 0 1012.8 1012.7 0.0
27/11:00pm 22.5 27.5 22.5 100 0.0 CALM 0 0 0 0 1012.9 1012.8 0.0
27/10:30pm 22.6 27.7 22.6 100 0.0 CALM 0 0 0 0 1012.9 1012.8 0.0
27/10:00pm 22.7 27.8 22.7 100 0.0 CALM 0 0 0 0 1013.1 1013.0 0.0
27/09:30pm 23.0 28.2 22.8 99 0.1 CALM 0 0 0 0 1012.9 1012.8 0.0
27/09:00pm 23.3 28.6 23.0 98 0.2 CALM 0 0 0 0 1012.8 1012.7 0.0
27/08:30pm 23.5 28.8 23.0 97 0.3 CALM 0 0 0 0 1012.6 1012.5 0.0
27/08:00pm 24.0 29.3 23.0 94 0.7 CALM 0 0 0 0 1012.1 1012.0 0.0
27/07:30pm 24.8 29.9 22.7 88 1.4 CALM 0 0 0 0 1011.8 1011.7 0.0
27/07:00pm 25.4 30.5 22.7 85 1.8 CALM 0 9 0 5 1011.6 1011.5 0.0
27/06:30pm 26.1 29.4 22.6 81 2.4 ESE 9 15 5 8 1011.4 1011.3 0.0
27/06:00pm 26.8 29.1 22.0 75 3.2 ESE 13 17 7 9 1011.1 1011.0 0.0
27/05:30pm 27.6 30.5 22.5 74 3.5 ESE 11 17 6 9 1010.5 1010.4 0.0
27/05:00pm 28.0 30.5 22.5 72 3.7 ESE 13 20 7 11 1010.2 1010.1 0.0
27/04:30pm 28.0 30.7 22.9 74 3.5 ESE 13 19 7 10 1010.0 1009.9 0.0
27/04:00pm 28.3 30.4 22.5 71 3.9 E 15 24 8 13 1009.9 1009.8 0.0
27/03:30pm 28.7 31.4 22.9 71 4.0 E 13 20 7 11 1009.9 1009.8 0.0
27/03:00pm 28.9 31.8 23.1 71 4.0 E 13 19 7 10 1009.9 1009.8 0.0
27/02:30pm 28.7 31.2 22.4 68 4.3 E 13 19 7 10 1010.3 1010.2 0.0
27/02:00pm 29.1 31.4 22.1 66 4.7 ESE 13 20 7 11 1010.6 1010.5 0.0
27/01:30pm 28.8 30.9 22.5 68 4.3 E 15 26 8 14 1011.0 1010.9 0.0
27/01:00pm 29.2 31.9 23.4 71 4.0 E 15 22 8 12 1011.6 1011.5 0.0
27/12:30pm 29.1 30.9 22.6 68 4.4 E 17 22 9 12 1012.0 1011.9 0.0
27/12:00pm 28.6 30.0 21.9 67 4.5 SE 17 28 9 15 1012.3 1012.2 0.0
27/11:30am 28.9 31.4 22.4 68 4.4 ESE 13 26 7 14 1012.8 1012.7 0.0
27/11:00am 28.7 30.3 22.9 71 4.0 ESE 19 28 10 15 1013.3 1013.2 0.0
27/10:30am 28.6 30.8 23.3 73 3.6 ESE 17 26 9 14 1013.6 1013.5 0.0
27/10:00am 27.8 31.8 23.8 79 2.8 SE 9 24 5 13 1013.8 1013.7 0.0
27/09:30am 26.5 30.4 24.2 87 1.6 S 11 15 6 8 1013.8 1013.7 0.0
27/09:00am 25.9 32.2 24.7 93 0.8 CALM 0 11 0 6 1013.4 1013.3 0.0
27/08:30am 24.8 31.1 24.8 100 0.0 CALM 0 0 0 0 1013.1 1013.0 0.0
27/08:00am 24.1 30.0 24.1 100 0.0 CALM 0 0 0 0 1012.7 1012.6 0.0
27/07:30am 23.8 29.5 23.8 100 0.0 CALM 0 0 0 0 1012.4 1012.3 0.0
27/07:00am 23.6 29.2 23.6 100 0.0 CALM 0 0 0 0 1012.1 1012.0 0.0
27/06:30am 23.6 29.2 23.6 100 0.0 CALM 0 0 0 0 1011.5 1011.4 0.0
27/06:00am 23.6 29.2 23.6 100 0.0 CALM 0 0 0 0 1010.8 1010.7 0.0
27/05:30am 23.7 29.4 23.7 100 0.0 CALM 0 0 0 0 1010.7 1010.6 0.0
27/05:00am 23.6 29.2 23.6 100 0.0 CALM 0 0 0 0 1010.5 1010.4 0.0
27/04:30am 23.7 29.4 23.7 100 0.0 CALM 0 0 0 0 1010.5 1010.4 0.0
27/04:00am 23.6 29.2 23.6 100 0.0 CALM 0 0 0 0 1010.7 1010.6 0.0
27/03:30am 23.6 29.2 23.6 100 0.0 CALM 0 0 0 0 1010.9 1010.8 0.0
27/03:00am 23.5 29.1 23.5 100 0.0 CALM 0 0 0 0 1011.1 1011.0 0.0
27/02:30am 23.4 28.9 23.4 100 0.0 CALM 0 0 0 0 1011.0 1010.9 0.0
27/02:00am 23.4 28.9 23.4 100 0.0 CALM 0 0 0 0 1011.3 1011.2 0.0
27/01:30am 23.7 29.4 23.7 100 0.0 CALM 0 0 0 0 1011.7 1011.6 0.0
27/01:00am 23.9 29.7 23.9 100 0.0 CALM 0 0 0 0 1012.2 1012.1 0.0
27/12:30am 24.2 30.2 24.2 100 0.0 CALM 0 0 0 0 1012.8 1012.7 0.0
27/12:00am 24.2 30.2 24.2 100 0.0 CALM 0 0 0 0 1013.0 1012.9 0.0
 
Date/Time
EST
Temp
°C
App
Temp
°C
Dew
Point
°C
Rel
Hum
%
Delta-T
°C
Wind Press
QNH
hPa
Press
MSL
hPa
Rain since
9am
mm
Dir  Spd
km/h
Gust
km/h
Spd
kts
Gust
kts
26/11:30pm 24.6 30.8 24.6 100 0.0 CALM 0 0 0 0 1013.3 1013.2 0.0
26/11:00pm 24.7 30.8 24.4 98 0.2 CALM 0 0 0 0 1013.5 1013.4 0.0
26/10:30pm 24.8 30.8 24.3 97 0.3 CALM 0 0 0 0 1013.5 1013.4 0.0
26/10:00pm 24.9 31.0 24.4 97 0.3 CALM 0 0 0 0 1013.3 1013.2 0.0
26/09:30pm 25.0 30.9 24.1 95 0.6 CALM 0 0 0 0 1013.4 1013.3 0.0
26/09:00pm 25.2 31.0 24.0 93 0.8 CALM 0 0 0 0 1013.3 1013.2 0.0
26/08:30pm 25.6 31.0 23.8 90 1.2 SE 2 11 1 6 1012.9 1012.8 0.0
26/08:00pm 25.8 30.1 23.7 88 1.4 SSE 7 13 4 7 1012.1 1012.0 0.0
26/07:30pm 25.9 29.9 23.8 88 1.4 SE 9 13 5 7 1011.5 1011.4 0.0
26/07:00pm 26.0 29.2 23.7 87 1.6 SE 13 17 7 9 1011.1 1011.0 0.0
26/06:30pm 26.3 29.2 23.8 86 1.7 SE 15 20 8 11 1010.8 1010.7 0.0
26/06:00pm 26.4 28.8 23.7 85 1.9 SE 17 20 9 11 1010.6 1010.5 0.0
26/05:30pm 26.8 29.2 23.7 83 2.1 SE 17 24 9 13 1010.5 1010.4 0.0
26/05:00pm 27.0 28.9 23.5 81 2.4 SE 19 28 10 15 1010.2 1010.1 0.0
26/04:30pm 27.6 28.9 23.4 78 2.9 SE 22 30 12 16 1010.0 1009.9 0.0
26/04:00pm 28.0 30.6 24.0 79 2.8 SE 17 22 9 12 1009.8 1009.7 0.0
26/03:30pm 27.9 30.0 24.1 80 2.6 SE 20 32 11 17 1009.8 1009.7 0.0
26/03:00pm 27.9 30.6 24.1 80 2.6 ESE 17 30 9 16 1009.9 1009.8 0.0
26/02:30pm 28.2 29.6 24.2 79 2.8 ESE 24 33 13 18 1010.1 1010.0 0.0
26/02:00pm 28.8 30.5 24.1 76 3.3 ESE 22 28 12 15 1010.5 1010.4 0.0

Other Formats:

Comma delimited format used in spreadsheet applications
http://www.bom.gov.au/fwo/IDQ60801/IDQ60801.94186.axf

JavaScript Object Notation format (JSON) in row-major order
http://www.bom.gov.au/fwo/IDQ60801/IDQ60801.94186.json